createdAt,value
2023-02-19T00:00:27.651Z,3.81
2023-02-19T00:05:50.523Z,3.77
2023-02-19T00:10:53.632Z,3.72
2023-02-19T00:15:57.592Z,3.65
2023-02-19T00:21:00.769Z,3.64
2023-02-19T00:26:18.233Z,3.62
2023-02-19T00:31:23.662Z,3.61
2023-02-19T00:36:28.329Z,3.58
2023-02-19T00:41:31.438Z,3.52
2023-02-19T00:46:39.591Z,3.47
2023-02-19T00:51:42.473Z,3.39
2023-02-19T00:56:45.587Z,3.34
2023-02-19T01:01:49.984Z,3.27
2023-02-19T01:06:53.021Z,3.19
2023-02-19T01:11:56.029Z,3.17
2023-02-19T01:16:59.543Z,3.14
2023-02-19T01:22:02.343Z,3.13
2023-02-19T01:27:05.250Z,3.15
2023-02-19T01:32:08.261Z,3.13
2023-02-19T01:37:12.397Z,3.13
2023-02-19T01:42:17.183Z,3.10
2023-02-19T01:47:21.165Z,3.12
2023-02-19T01:52:36.972Z,3.20
2023-02-19T01:57:46.535Z,3.33
2023-02-19T02:02:53.053Z,3.40
2023-02-19T02:08:15.692Z,3.46
2023-02-19T02:13:19.110Z,3.52
2023-02-19T02:18:22.010Z,3.56
2023-02-19T02:23:30.856Z,3.65
2023-02-19T02:28:58.041Z,3.73
2023-02-19T02:34:17.523Z,3.79
2023-02-19T02:39:22.622Z,3.88
2023-02-19T02:44:35.320Z,3.97
2023-02-19T02:49:59.127Z,3.99
2023-02-19T02:55:05.182Z,4.00
2023-02-19T03:00:09.110Z,4.09
2023-02-19T03:05:41.822Z,4.12
2023-02-19T03:10:51.706Z,4.19
2023-02-19T03:16:23.458Z,4.12
2023-02-19T03:21:28.621Z,4.14
2023-02-19T03:26:33.882Z,4.21
2023-02-19T03:31:39.462Z,4.24
2023-02-19T03:36:46.440Z,4.13
2023-02-19T03:42:01.128Z,4.05
2023-02-19T03:47:43.838Z,4.03
2023-02-19T03:52:55.774Z,3.99
2023-02-19T03:58:10.354Z,4.02
2023-02-19T04:03:13.261Z,4.03
2023-02-19T04:08:22.212Z,4.03
2023-02-19T04:13:31.256Z,4.11
2023-02-19T04:18:38.565Z,4.14
2023-02-19T04:23:44.933Z,4.14
2023-02-19T04:28:48.064Z,4.19
2023-02-19T04:33:50.960Z,4.23
2023-02-19T04:38:53.861Z,4.21
2023-02-19T04:43:56.763Z,4.15
2023-02-19T04:48:59.566Z,4.08
2023-02-19T04:54:02.473Z,4.11
2023-02-19T04:59:05.884Z,4.13
2023-02-19T05:04:09.114Z,4.06
2023-02-19T05:09:12.001Z,4.03
2023-02-19T05:14:14.903Z,3.99
2023-02-19T05:19:18.084Z,3.97
2023-02-19T05:24:21.020Z,3.91
2023-02-19T05:29:24.132Z,3.88
2023-02-19T05:34:27.054Z,3.85
2023-02-19T05:39:29.937Z,3.87
2023-02-19T05:44:32.843Z,3.88
2023-02-19T05:49:36.157Z,3.85
2023-02-19T05:54:39.262Z,3.81
2023-02-19T05:59:42.166Z,3.81
2023-02-19T06:04:45.072Z,3.82
2023-02-19T06:09:51.428Z,3.84
2023-02-19T06:14:54.359Z,3.80
2023-02-19T06:19:57.266Z,3.87
2023-02-19T06:25:00.105Z,3.95
2023-02-19T06:30:03.121Z,3.96
2023-02-19T06:35:06.392Z,3.96
2023-02-19T06:40:10.087Z,4.01
2023-02-19T06:45:12.916Z,4.04
2023-02-19T06:50:15.938Z,4.07
2023-02-19T06:55:18.828Z,4.13
2023-02-19T07:00:22.049Z,4.23
2023-02-19T07:05:24.941Z,4.31
2023-02-19T07:10:27.843Z,4.35
2023-02-19T07:15:30.746Z,4.44
2023-02-19T07:20:33.962Z,4.49
2023-02-19T07:25:38.107Z,4.55
2023-02-19T07:30:41.024Z,4.71
2023-02-19T07:35:48.298Z,4.80
2023-02-19T07:40:55.774Z,4.81
2023-02-19T07:45:59.616Z,4.88
2023-02-19T07:51:05.751Z,5.02
2023-02-19T07:56:11.697Z,5.08
2023-02-19T08:01:17.714Z,5.16
2023-02-19T08:06:20.576Z,5.20
2023-02-19T08:11:42.632Z,5.27
2023-02-19T08:16:50.549Z,5.36
2023-02-19T08:21:53.803Z,5.62
2023-02-19T08:26:56.969Z,6.05
2023-02-19T08:31:59.792Z,6.19
2023-02-19T08:37:02.787Z,6.16
2023-02-19T08:42:07.120Z,6.02
2023-02-19T08:47:10.020Z,5.96
2023-02-19T08:52:12.922Z,5.83
2023-02-19T08:57:15.826Z,5.70
2023-02-19T09:02:18.833Z,5.59
2023-02-19T09:07:22.160Z,5.75
2023-02-19T09:12:25.760Z,6.09
2023-02-19T09:17:28.671Z,6.48
2023-02-19T09:22:31.577Z,7.01
2023-02-19T09:27:34.597Z,7.61
2023-02-19T09:32:37.488Z,8.93
2023-02-19T09:37:40.295Z,10.58
2023-02-19T09:42:43.877Z,11.24
2023-02-19T09:47:47.230Z,10.60
2023-02-19T09:52:55.151Z,9.80
2023-02-19T09:58:01.521Z,9.17
2023-02-19T10:03:11.507Z,9.16
2023-02-19T10:08:20.446Z,9.94
2023-02-19T10:13:31.134Z,10.65
2023-02-19T10:18:42.645Z,10.71
2023-02-19T10:23:47.590Z,11.44
2023-02-19T10:28:50.495Z,11.16
2023-02-19T10:33:56.063Z,11.22
2023-02-19T10:39:00.728Z,11.65
2023-02-19T10:44:07.139Z,13.01
2023-02-19T10:49:33.041Z,14.48
2023-02-19T10:54:36.899Z,16.74
2023-02-19T10:59:50.388Z,18.45
2023-02-19T11:05:20.517Z,18.83
2023-02-19T11:10:26.645Z,19.74
2023-02-19T11:15:35.504Z,20.18
2023-02-19T11:21:10.864Z,21.54
2023-02-19T11:26:23.181Z,22.17
2023-02-19T11:31:32.264Z,21.12
2023-02-19T11:36:36.869Z,19.57
2023-02-19T11:41:58.618Z,18.93
2023-02-19T11:47:31.015Z,17.86
2023-02-19T11:52:52.144Z,15.82
2023-02-19T11:58:25.562Z,15.70
2023-02-19T12:04:02.052Z,14.34
2023-02-19T12:09:23.392Z,13.06
2023-02-19T12:14:52.633Z,11.88
2023-02-19T12:20:07.057Z,12.96
2023-02-19T12:25:48.186Z,16.38
2023-02-19T12:31:13.035Z,17.56
2023-02-19T12:36:31.063Z,17.79
2023-02-19T12:41:47.670Z,17.21
2023-02-19T12:46:59.299Z,16.63
2023-02-19T12:52:32.103Z,16.88
2023-02-19T12:57:37.273Z,17.28
2023-02-19T13:03:06.012Z,18.16
2023-02-19T13:08:19.327Z,19.32
2023-02-19T13:13:44.366Z,19.46
2023-02-19T13:18:55.447Z,16.89
2023-02-19T13:23:58.501Z,14.20
2023-02-19T13:29:26.033Z,13.42
2023-02-19T13:35:06.012Z,14.85
2023-02-19T13:40:27.652Z,17.93
2023-02-19T13:45:46.436Z,17.43
2023-02-19T13:50:50.222Z,14.92
2023-02-19T13:55:53.314Z,12.86
2023-02-19T14:00:56.263Z,12.40
2023-02-19T14:06:02.772Z,11.25
2023-02-19T14:11:06.273Z,9.91
2023-02-19T14:16:33.256Z,8.77
2023-02-19T14:21:41.370Z,7.75
2023-02-19T14:26:44.682Z,7.00
2023-02-19T14:31:47.609Z,6.51
2023-02-19T14:36:55.605Z,6.18
2023-02-19T14:42:02.296Z,6.10
2023-02-19T14:47:13.804Z,6.07
2023-02-19T14:52:32.377Z,6.00
2023-02-19T14:57:45.951Z,5.75
2023-02-19T15:02:51.702Z,5.61
2023-02-19T15:07:59.522Z,6.04
2023-02-19T15:13:11.759Z,7.44
2023-02-19T15:18:23.654Z,7.82
2023-02-19T15:23:30.664Z,8.56
2023-02-19T15:28:34.593Z,8.72
2023-02-19T15:33:37.597Z,8.40
2023-02-19T15:38:40.601Z,7.49
2023-02-19T15:43:50.889Z,6.73
2023-02-19T15:49:01.425Z,6.51
2023-02-19T15:54:15.231Z,5.91
2023-02-19T15:59:29.088Z,5.06
2023-02-19T16:04:34.754Z,4.32
2023-02-19T16:09:40.217Z,3.75
2023-02-19T16:14:43.121Z,3.29
2023-02-19T16:19:48.089Z,2.93
2023-02-19T16:24:55.385Z,2.63
2023-02-19T16:29:59.157Z,2.37
2023-02-19T16:35:02.214Z,2.14
2023-02-19T16:40:08.212Z,1.98
2023-02-19T16:45:11.207Z,1.85
2023-02-19T16:50:22.297Z,1.71
2023-02-19T16:55:25.678Z,1.55
2023-02-19T17:00:31.278Z,1.41
2023-02-19T17:05:34.280Z,1.30
2023-02-19T17:10:37.185Z,1.20
2023-02-19T17:15:39.991Z,1.10
2023-02-19T17:20:48.639Z,1.03
2023-02-19T17:25:52.103Z,1.00
2023-02-19T17:30:55.045Z,0.99
2023-02-19T17:35:58.472Z,0.98
2023-02-19T17:41:01.365Z,0.97
2023-02-19T17:46:04.701Z,0.94
2023-02-19T17:51:07.682Z,0.92
2023-02-19T17:56:15.810Z,0.93
2023-02-19T18:01:18.761Z,0.91
2023-02-19T18:06:21.836Z,0.93
2023-02-19T18:11:24.840Z,0.91
2023-02-19T18:16:27.779Z,0.87
2023-02-19T18:21:30.639Z,0.85
2023-02-19T18:26:34.515Z,0.83
2023-02-19T18:31:37.969Z,0.83
2023-02-19T18:36:45.187Z,0.87
2023-02-19T18:41:49.540Z,0.92
2023-02-19T18:46:52.738Z,0.94
2023-02-19T18:51:56.234Z,0.91
2023-02-19T18:57:00.839Z,0.87
2023-02-19T19:02:05.244Z,0.88
2023-02-19T19:07:10.206Z,0.90
2023-02-19T19:12:13.209Z,0.97
2023-02-19T19:17:16.104Z,1.08
2023-02-19T19:22:22.900Z,1.13
2023-02-19T19:27:26.214Z,1.15
2023-02-19T19:32:29.122Z,1.16
2023-02-19T19:37:32.132Z,1.16
2023-02-19T19:42:35.847Z,1.16
2023-02-19T19:47:38.759Z,1.22
2023-02-19T19:52:41.962Z,1.28
2023-02-19T19:57:44.978Z,1.31
2023-02-19T20:02:48.218Z,1.27
2023-02-19T20:07:53.727Z,1.24
2023-02-19T20:12:56.650Z,1.22
2023-02-19T20:17:59.657Z,1.23
2023-02-19T20:23:02.558Z,1.28
2023-02-19T20:28:05.897Z,1.33
2023-02-19T20:33:08.772Z,1.40
2023-02-19T20:38:15.163Z,1.64
2023-02-19T20:43:18.372Z,2.60
2023-02-19T20:48:21.376Z,2.49
2023-02-19T20:53:24.281Z,2.04
2023-02-19T20:58:27.904Z,1.92
2023-02-19T21:03:30.911Z,2.61
2023-02-19T21:08:33.821Z,3.19
2023-02-19T21:13:36.922Z,2.82
2023-02-19T21:18:39.931Z,2.39
2023-02-19T21:23:42.839Z,2.94
2023-02-19T21:28:45.738Z,3.22
2023-02-19T21:33:49.059Z,3.20
2023-02-19T21:38:51.955Z,2.98
2023-02-19T21:43:56.802Z,2.81
2023-02-19T21:49:00.714Z,2.74
2023-02-19T21:54:04.762Z,2.71
2023-02-19T21:59:07.666Z,2.76
2023-02-19T22:04:17.121Z,2.85
2023-02-19T22:09:20.035Z,2.93
2023-02-19T22:14:22.894Z,3.07
2023-02-19T22:19:25.831Z,3.10
2023-02-19T22:24:28.738Z,3.07
2023-02-19T22:29:31.645Z,3.37
2023-02-19T22:34:39.659Z,3.26
2023-02-19T22:39:43.181Z,3.12
2023-02-19T22:44:45.988Z,3.18
2023-02-19T22:49:48.887Z,3.04
2023-02-19T22:54:52.692Z,2.96
2023-02-19T22:59:55.646Z,2.97
2023-02-19T23:04:58.626Z,2.81
2023-02-19T23:10:01.437Z,2.69
2023-02-19T23:15:05.986Z,2.68
2023-02-19T23:20:09.551Z,2.64
2023-02-19T23:25:12.406Z,2.68
2023-02-19T23:30:17.289Z,2.69
2023-02-19T23:35:20.358Z,2.72
2023-02-19T23:40:23.358Z,2.79
2023-02-19T23:45:26.373Z,2.83
2023-02-19T23:50:29.266Z,2.78
2023-02-19T23:55:32.167Z,2.78
